Roberts Field
KRDM : now visible

Airfield :











YOU CAN JOIN US ON...

 
LOGIN :

Register | Disclaimer

   EN    FR    IT 

 









Legend :    VFR   Marginal VFR   IFR   Intensive IFR   Very Intensive IFR
Visi :
Ceiling :
>= 8 km
>= 3000ft
5 to 8 km
1000 to 3000 ft
1500m to 5 km
500 to 1000 ft
800 to 1500m
200 to 500 ft
< 800m
< 200 ft
Symbols :   Thunderstorms  Fog  Heavy snow  Heavy precipitations  Wind > 20 kt






- Airport Elevation : 3080 ft
- IATA code : RDM


KRDM - Roberts Field

CURRENT METAR :
  • 121756Z 19009KT 10SM CLR 08/03 A3001 RMK AO2 SLP163 T00830033 10083 20006 58003

EXPIRED METARs :
  • 121656Z 00000KT 10SM FEW048 SCT060 06/03 A3002 RMK AO2 SLP170 T00560028
  • 121556Z 00000KT 10SM BKN100 02/01 A3002 RMK AO2 SLP173 T00220006

TAF KRDM
Valid from the 12 at 18:00 until the 13 at 18:00 UTC


121737Z 1218/1318 19010KT P6SM VCSH SCT045 BKN060
FM121900 22012G18KT 6SM -SHRA OVC040
FM122300 26015G23KT 6SM -SHRA OVC035
FM130500 23009KT P6SM SCT050 BKN100
FM131200 17004KT P6SM BKN060 BKN100
FM131500 VRB04KT 6SM -RASN OVC025



MET'MAP, your aeronautical weather chart ! - Copyright ORBIFLY December 2007 - Disclaimer

ORBIFLY MET'MAP TEAM :

Programming & Development : Alexandra Zaïnal
Concept & original design : Baudouin d'Aumeries
Assistance for programming : Marc-Olivier Méhu
Technical & hardware support : Manuel Goepfert

Contact : metmap@orbifly.com




SOURCES & CREDITS :

   NOAA       Earth
Advisory